Fisherville, Pennsylvania
Current Conditions -  °F | °C
As of 5:02 AM on Tuesday 21 Oct 2014 (Local Time) from KMUI Reporting Station
Haze Haze  
Wind Chill: 50°   Ceiling: 8000
Heat Index: 50°   Visibility: 3mi
Dew Point: 50°   Wind: 1mph
Humidity: 100%   Direction: 70°ENE
Pressure: 29.86"   Gusts: NA
Location:  40.4949°N, 76.8115°W
Report Text: KMUI 210902Z AUTO 07001KT 3SM BR SCT065 BKN080 BKN100 10/10 A2986 RMK AO2 $
Loading
Personal Weather Stations






























Interactive Weather Map
Tropical Storm Tracking
New forecast layout! Learn more

10-Day Weather Forecast

Advertisements
Track Severe Weather on mobile